createdAt,value
2022-11-04T00:03:34.389Z,0.40
2022-11-04T00:06:25.624Z,0.37
2022-11-04T00:09:19.475Z,0.30
2022-11-04T00:14:49.964Z,0.30
2022-11-04T00:17:41.435Z,0.40
2022-11-04T00:20:50.412Z,0.55
2022-11-04T00:23:59.805Z,0.40
2022-11-04T00:29:35.968Z,0.40
2022-11-04T00:32:45.242Z,0.30
2022-11-04T00:35:36.670Z,0.37
2022-11-04T00:41:27.164Z,0.50
2022-11-04T00:44:18.767Z,0.50
2022-11-04T00:47:10.212Z,0.30
2022-11-04T00:50:01.332Z,0.30
2022-11-04T00:52:52.816Z,0.20
2022-11-04T00:55:44.489Z,0.37
2022-11-04T01:01:18.657Z,0.28
2022-11-04T01:04:11.192Z,0.30
2022-11-04T01:07:02.367Z,0.30
2022-11-04T01:09:53.796Z,0.25
2022-11-04T01:12:45.114Z,0.23
2022-11-04T01:15:37.814Z,0.20
2022-11-04T01:18:30.445Z,0.20
2022-11-04T01:21:21.534Z,0.30
2022-11-04T01:24:13.097Z,0.23
2022-11-04T01:27:04.846Z,0.15
2022-11-04T01:29:56.408Z,0.20
2022-11-04T01:32:47.762Z,0.53
2022-11-04T01:38:33.588Z,0.20
2022-11-04T01:41:26.541Z,0.10
2022-11-04T01:47:36.045Z,0.30
2022-11-04T01:50:30.371Z,0.30
2022-11-04T01:53:24.857Z,0.20
2022-11-04T01:58:56.968Z,0.40
2022-11-04T02:01:48.675Z,0.40
2022-11-04T02:04:41.385Z,0.90
2022-11-04T02:10:15.037Z,0.40
2022-11-04T02:13:07.884Z,0.40
2022-11-04T02:18:53.263Z,0.30
2022-11-04T02:22:11.663Z,0.30
2022-11-04T02:25:17.160Z,0.30
2022-11-04T02:28:26.254Z,0.50
2022-11-04T02:31:20.917Z,0.53
2022-11-04T02:36:58.547Z,0.85
2022-11-04T02:39:55.261Z,0.80
2022-11-04T02:42:52.122Z,0.75
2022-11-04T02:45:45.795Z,0.60
2022-11-04T02:48:40.731Z,0.80
2022-11-04T02:51:34.969Z,0.35
2022-11-04T02:57:24.155Z,0.60
2022-11-04T03:00:18.629Z,0.40
2022-11-04T03:03:13.877Z,0.53
2022-11-04T03:06:06.272Z,0.60
2022-11-04T03:08:59.237Z,0.50
2022-11-04T03:14:41.471Z,0.47
2022-11-04T03:17:36.798Z,0.60
2022-11-04T03:20:30.376Z,0.45
2022-11-04T03:23:21.824Z,0.60
2022-11-04T03:28:56.809Z,0.62
2022-11-04T03:34:29.396Z,0.80
2022-11-04T03:37:20.813Z,0.80
2022-11-04T03:40:14.808Z,0.88
2022-11-04T03:45:45.034Z,0.68
2022-11-04T03:48:36.278Z,0.90
2022-11-04T03:51:27.384Z,0.68
2022-11-04T03:54:18.946Z,0.80
2022-11-04T03:57:30.673Z,0.80
2022-11-04T04:00:23.932Z,1.00
2022-11-04T04:03:18.673Z,0.88
2022-11-04T04:06:13.460Z,0.90
2022-11-04T04:11:54.119Z,0.70
2022-11-04T04:14:48.622Z,0.60
2022-11-04T04:17:42.567Z,0.70
2022-11-04T04:20:37.161Z,0.68
2022-11-04T04:23:49.409Z,0.90
2022-11-04T04:27:00.783Z,0.85
2022-11-04T04:29:54.833Z,0.70
2022-11-04T04:32:49.871Z,0.98
2022-11-04T04:35:44.405Z,1.02
2022-11-04T04:38:53.936Z,0.90
2022-11-04T04:44:43.227Z,1.00
2022-11-04T04:47:39.186Z,1.10
2022-11-04T04:50:33.653Z,1.17
2022-11-04T04:56:08.786Z,0.98
2022-11-04T04:59:00.232Z,1.20
2022-11-04T05:04:32.663Z,1.17
2022-11-04T05:07:24.192Z,1.35
2022-11-04T05:10:17.409Z,1.10
2022-11-04T05:13:27.172Z,1.45
2022-11-04T05:18:57.655Z,1.00
2022-11-04T05:21:48.917Z,1.10
2022-11-04T05:24:40.300Z,1.07
2022-11-04T05:27:31.735Z,0.93
2022-11-04T05:30:23.568Z,1.00
2022-11-04T05:33:14.802Z,0.80
2022-11-04T05:36:11.287Z,0.90
2022-11-04T05:41:41.283Z,0.80
2022-11-04T05:44:32.362Z,0.90
2022-11-04T05:47:23.739Z,0.80
2022-11-04T05:50:15.044Z,0.70
2022-11-04T05:53:06.723Z,0.60
2022-11-04T05:55:58.144Z,0.60
2022-11-04T05:58:49.625Z,0.62
2022-11-04T06:01:44.123Z,0.70
2022-11-04T06:04:36.185Z,0.78
2022-11-04T06:07:27.560Z,0.80
2022-11-04T06:10:19.378Z,0.70
2022-11-04T06:15:52.752Z,0.80
2022-11-04T06:18:44.333Z,0.60
2022-11-04T06:21:36.505Z,1.17
2022-11-04T06:24:28.000Z,0.50
2022-11-04T06:27:19.606Z,0.60
2022-11-04T06:30:14.433Z,0.70
2022-11-04T06:33:06.192Z,0.98
2022-11-04T06:38:40.212Z,0.90
2022-11-04T06:44:12.100Z,1.20
2022-11-04T06:47:03.338Z,0.90
2022-11-04T06:49:54.921Z,1.00
2022-11-04T06:52:49.381Z,1.07
2022-11-04T06:55:41.156Z,1.27
2022-11-04T06:58:32.563Z,1.07
2022-11-04T07:01:27.124Z,1.20
2022-11-04T07:04:18.836Z,1.07
2022-11-04T07:07:10.136Z,1.00
2022-11-04T07:10:01.713Z,1.42
2022-11-04T07:12:54.593Z,1.07
2022-11-04T07:15:46.250Z,1.10
2022-11-04T07:18:38.013Z,1.40
2022-11-04T07:24:09.920Z,1.42
2022-11-04T07:29:41.161Z,1.10
2022-11-04T07:32:33.211Z,1.30
2022-11-04T07:38:08.642Z,0.70
2022-11-04T07:41:00.801Z,0.60
2022-11-04T07:43:55.102Z,0.82
2022-11-04T07:46:46.542Z,0.88
2022-11-04T07:49:38.089Z,0.70
2022-11-04T07:52:29.774Z,1.17
2022-11-04T07:58:02.283Z,0.90
2022-11-04T08:00:55.317Z,1.25
2022-11-04T08:03:46.608Z,0.80
2022-11-04T08:06:38.163Z,0.70
2022-11-04T08:12:15.672Z,1.55
2022-11-04T08:15:08.935Z,1.22
2022-11-04T08:18:00.246Z,1.07
2022-11-04T08:20:52.793Z,1.30
2022-11-04T08:23:44.640Z,1.55
2022-11-04T08:29:19.547Z,1.42
2022-11-04T08:32:10.659Z,1.60
2022-11-04T08:35:02.443Z,1.55
2022-11-04T08:37:54.169Z,1.32
2022-11-04T08:40:46.297Z,1.32
2022-11-04T08:43:38.608Z,1.37
2022-11-04T08:46:34.332Z,1.45
2022-11-04T08:49:30.605Z,1.80
2022-11-04T08:52:21.999Z,6.92
2022-11-04T08:55:13.823Z,4.33
2022-11-04T08:58:04.951Z,3.65
2022-11-04T09:00:56.135Z,1.77
2022-11-04T09:03:47.582Z,2.65
2022-11-04T09:06:41.760Z,2.08
2022-11-04T09:09:33.480Z,2.45
2022-11-04T09:21:42.986Z,2.10
2022-11-04T09:24:34.023Z,1.85
2022-11-04T09:27:25.054Z,1.45
2022-11-04T09:30:16.744Z,1.85
2022-11-04T09:35:57.771Z,1.75
2022-11-04T09:38:48.764Z,1.62
2022-11-04T09:42:22.308Z,1.55
2022-11-04T09:45:21.488Z,1.40
2022-11-04T09:48:12.279Z,1.80
2022-11-04T09:53:44.931Z,1.12
2022-11-04T09:59:20.044Z,1.30
2022-11-04T10:02:27.724Z,1.22
2022-11-04T10:05:29.016Z,0.60
2022-11-04T10:14:35.472Z,1.75
2022-11-04T10:17:42.457Z,1.22
2022-11-04T10:20:47.173Z,1.70
2022-11-04T10:23:42.385Z,1.95
2022-11-04T10:42:47.663Z,1.05
2022-11-04T10:45:41.679Z,1.17
2022-11-04T10:48:37.018Z,1.85
2022-11-04T10:54:11.090Z,2.10
2022-11-04T10:57:02.958Z,1.60
2022-11-04T10:59:57.079Z,1.10
2022-11-04T11:02:50.042Z,1.20
2022-11-04T11:05:42.672Z,1.82
2022-11-04T11:08:37.446Z,1.17
2022-11-04T11:11:41.575Z,0.65
2022-11-04T11:14:38.879Z,0.80
2022-11-04T11:17:39.056Z,0.78
2022-11-04T11:20:32.188Z,1.05
2022-11-04T11:23:40.076Z,0.90
2022-11-04T11:29:14.089Z,0.72
2022-11-04T11:32:06.278Z,0.90
2022-11-04T11:34:58.913Z,0.72
2022-11-04T11:37:50.612Z,0.70
2022-11-04T11:41:03.590Z,0.75
2022-11-04T11:43:39.081Z,1.15
2022-11-04T11:49:15.523Z,1.98
2022-11-04T11:55:23.096Z,1.20
2022-11-04T12:09:33.964Z,0.82
2022-11-04T12:15:27.770Z,0.80
2022-11-04T12:18:39.028Z,0.60
2022-11-04T12:24:31.784Z,0.65
2022-11-04T12:27:27.719Z,0.85
2022-11-04T12:30:28.242Z,1.50
2022-11-04T12:33:21.448Z,0.85
2022-11-04T12:42:29.635Z,0.70
2022-11-04T12:45:25.850Z,0.47
2022-11-04T12:48:21.857Z,0.82
2022-11-04T12:54:04.938Z,0.50
2022-11-04T12:57:00.214Z,0.62
2022-11-04T13:00:11.905Z,0.50
2022-11-04T13:03:06.601Z,0.50
2022-11-04T13:06:01.555Z,0.47
2022-11-04T13:11:35.586Z,0.80
2022-11-04T13:14:30.368Z,1.12
2022-11-04T13:17:25.656Z,0.85
2022-11-04T13:20:23.460Z,1.50
2022-11-04T13:25:56.432Z,0.70
2022-11-04T13:28:51.749Z,0.88
2022-11-04T13:34:39.338Z,0.50
2022-11-04T13:37:33.174Z,0.60
2022-11-04T13:40:28.233Z,0.70
2022-11-04T13:43:39.490Z,0.30
2022-11-04T13:49:14.683Z,0.80
2022-11-04T13:52:09.415Z,0.70
2022-11-04T13:57:51.999Z,1.20
2022-11-04T14:00:45.274Z,0.90
2022-11-04T14:03:54.831Z,1.00
2022-11-04T14:12:40.209Z,1.05
2022-11-04T14:18:43.075Z,0.25
2022-11-04T14:21:37.007Z,0.40
2022-11-04T14:24:29.584Z,0.50
2022-11-04T14:27:29.587Z,0.53
2022-11-04T14:30:45.861Z,0.30
2022-11-04T14:33:42.679Z,0.30
2022-11-04T14:36:36.936Z,0.30
2022-11-04T14:39:31.438Z,0.60
2022-11-04T14:42:37.265Z,1.10
2022-11-04T14:45:31.190Z,0.80
2022-11-04T14:48:22.895Z,1.02
2022-11-04T14:51:25.073Z,1.40
2022-11-04T14:54:20.877Z,1.10
2022-11-04T14:57:17.888Z,0.90
2022-11-04T15:00:28.457Z,1.00
2022-11-04T15:06:34.904Z,1.12
2022-11-04T15:09:23.915Z,0.80
2022-11-04T15:12:35.160Z,0.82
2022-11-04T15:15:33.493Z,0.85
2022-11-04T15:18:29.401Z,0.80
2022-11-04T15:21:20.521Z,1.32
2022-11-04T15:24:17.621Z,1.42
2022-11-04T15:27:13.545Z,1.22
2022-11-04T15:30:07.227Z,1.00
2022-11-04T15:33:01.138Z,0.70
2022-11-04T15:35:53.697Z,0.50
2022-11-04T15:38:48.587Z,0.20
2022-11-04T15:42:16.439Z,0.25
2022-11-04T15:45:35.773Z,0.50
2022-11-04T15:48:36.303Z,0.78
2022-11-04T15:51:29.245Z,0.82
2022-11-04T15:54:26.321Z,0.70
2022-11-04T15:57:20.176Z,0.70
2022-11-04T16:00:20.099Z,0.75
2022-11-04T16:03:20.698Z,0.78
2022-11-04T16:06:12.993Z,1.10
2022-11-04T16:09:09.391Z,1.25
2022-11-04T16:12:15.512Z,1.10
2022-11-04T16:15:08.426Z,1.00
2022-11-04T16:17:59.655Z,1.10
2022-11-04T16:20:53.257Z,0.82
2022-11-04T16:23:49.221Z,0.93
2022-11-04T16:26:44.975Z,1.40
2022-11-04T16:29:41.643Z,1.50
2022-11-04T16:32:34.076Z,1.50
2022-11-04T16:35:27.088Z,1.20
2022-11-04T16:38:18.482Z,1.40
2022-11-04T16:41:10.947Z,1.50
2022-11-04T16:44:02.048Z,1.57
2022-11-04T16:46:53.886Z,2.00
2022-11-04T16:49:45.044Z,2.00
2022-11-04T16:52:44.149Z,1.50
2022-11-04T16:55:34.815Z,1.52
2022-11-04T16:58:26.470Z,1.85
2022-11-04T17:01:19.366Z,3.55
2022-11-04T17:04:11.453Z,1.50
2022-11-04T17:07:02.907Z,1.37
2022-11-04T17:09:54.248Z,1.30
2022-11-04T17:12:46.321Z,1.40
2022-11-04T17:15:39.089Z,1.12
2022-11-04T17:18:33.200Z,1.12
2022-11-04T17:21:24.751Z,1.42
2022-11-04T17:24:16.369Z,2.22
2022-11-04T17:27:07.604Z,1.77
2022-11-04T17:29:59.102Z,1.32
2022-11-04T17:32:51.265Z,1.10
2022-11-04T17:35:45.017Z,1.25
2022-11-04T17:38:36.679Z,1.82
2022-11-04T17:41:46.423Z,1.60
2022-11-04T17:44:38.172Z,1.87
2022-11-04T17:47:29.621Z,2.30
2022-11-04T17:50:21.555Z,2.10
2022-11-04T17:53:13.082Z,2.08
2022-11-04T17:56:05.177Z,2.20
2022-11-04T17:58:57.044Z,2.05
2022-11-04T18:01:48.903Z,2.22
2022-11-04T18:04:40.760Z,2.42
2022-11-04T18:07:33.826Z,2.40
2022-11-04T18:10:27.935Z,3.10
2022-11-04T18:13:20.949Z,2.17
2022-11-04T18:16:13.584Z,2.45
2022-11-04T18:19:05.165Z,1.52
2022-11-04T18:22:18.597Z,1.70
2022-11-04T18:25:12.283Z,1.30
2022-11-04T18:31:27.311Z,1.10
2022-11-04T18:34:20.109Z,1.17
2022-11-04T18:37:11.581Z,1.12
2022-11-04T18:40:02.860Z,1.50
2022-11-04T18:42:54.069Z,1.30
2022-11-04T18:45:45.170Z,1.20
2022-11-04T18:48:37.411Z,0.75
2022-11-04T18:51:29.263Z,0.50
2022-11-04T18:54:20.883Z,0.70
2022-11-04T18:57:12.961Z,1.07
2022-11-04T19:00:04.922Z,0.95
2022-11-04T19:02:56.211Z,1.02
2022-11-04T19:05:47.599Z,0.90
2022-11-04T19:08:45.321Z,1.20
2022-11-04T19:11:34.650Z,0.85
2022-11-04T19:14:26.059Z,0.85
2022-11-04T19:17:17.264Z,0.80
2022-11-04T19:20:12.465Z,0.60
2022-11-04T19:23:04.308Z,0.70
2022-11-04T19:26:01.037Z,0.40
2022-11-04T19:28:53.490Z,0.60
2022-11-04T19:31:45.312Z,0.65
2022-11-04T19:34:36.630Z,0.40
2022-11-04T19:37:28.111Z,0.40
2022-11-04T19:40:20.406Z,0.47
2022-11-04T19:43:12.159Z,0.40
2022-11-04T19:46:04.980Z,0.50
2022-11-04T19:48:56.818Z,0.60
2022-11-04T19:51:48.389Z,0.40
2022-11-04T19:54:40.208Z,0.30
2022-11-04T19:57:32.188Z,0.40
2022-11-04T20:00:24.444Z,0.47
2022-11-04T20:03:16.226Z,0.53
2022-11-04T20:06:11.313Z,0.68
2022-11-04T20:09:05.642Z,0.40
2022-11-04T20:12:14.422Z,0.60
2022-11-04T20:15:06.354Z,0.80
2022-11-04T20:17:57.486Z,0.75
2022-11-04T20:20:48.975Z,0.60
2022-11-04T20:23:40.361Z,0.80
2022-11-04T20:26:32.851Z,0.55
2022-11-04T20:29:24.324Z,0.60
2022-11-04T20:32:15.523Z,0.50
2022-11-04T20:35:08.285Z,0.53
2022-11-04T20:37:59.458Z,1.00
2022-11-04T20:40:52.265Z,0.40
2022-11-04T20:43:43.833Z,0.60
2022-11-04T20:46:36.282Z,0.60
2022-11-04T20:49:28.021Z,0.57
2022-11-04T20:52:19.340Z,0.50
2022-11-04T20:55:12.871Z,0.60
2022-11-04T20:58:04.715Z,1.10
2022-11-04T21:00:55.998Z,2.42
2022-11-04T21:03:48.302Z,1.37
2022-11-04T21:06:40.246Z,0.78
2022-11-04T21:09:31.681Z,0.42
2022-11-04T21:12:23.086Z,0.60
2022-11-04T21:15:16.503Z,0.60
2022-11-04T21:18:08.661Z,0.70
2022-11-04T21:21:00.905Z,0.55
2022-11-04T21:23:54.513Z,0.80
2022-11-04T21:26:46.785Z,1.10
2022-11-04T21:29:39.499Z,3.30
2022-11-04T21:32:31.434Z,1.37
2022-11-04T21:35:22.327Z,0.75
2022-11-04T21:38:16.066Z,0.57
2022-11-04T21:41:09.980Z,0.70
2022-11-04T21:44:02.493Z,0.62
2022-11-04T21:46:54.259Z,0.85
2022-11-04T21:49:45.705Z,0.60
2022-11-04T21:52:37.158Z,0.60
2022-11-04T21:55:28.743Z,0.80
2022-11-04T21:58:20.178Z,0.50
2022-11-04T22:01:13.046Z,0.57
2022-11-04T22:04:05.264Z,0.57
2022-11-04T22:06:56.358Z,0.60
2022-11-04T22:09:47.674Z,0.60
2022-11-04T22:12:39.223Z,0.60
2022-11-04T22:15:49.989Z,0.70
2022-11-04T22:18:41.616Z,0.62
2022-11-04T22:21:34.258Z,0.72
2022-11-04T22:24:25.531Z,0.70
2022-11-04T22:27:17.135Z,0.68
2022-11-04T22:30:11.805Z,0.70
2022-11-04T22:33:03.851Z,0.70
2022-11-04T22:35:55.905Z,0.80
2022-11-04T22:38:48.982Z,0.68
2022-11-04T22:41:40.426Z,0.47
2022-11-04T22:44:31.785Z,0.75
2022-11-04T22:47:23.435Z,0.60
2022-11-04T22:50:15.349Z,0.80
2022-11-04T22:53:06.806Z,0.70
2022-11-04T22:56:01.059Z,0.80
2022-11-04T22:58:54.373Z,0.40
2022-11-04T23:01:46.746Z,0.40
2022-11-04T23:07:05.817Z,0.80
2022-11-04T23:10:15.198Z,0.40
2022-11-04T23:13:27.414Z,0.57
2022-11-04T23:16:41.992Z,0.78
2022-11-04T23:19:33.831Z,0.60
2022-11-04T23:22:43.175Z,0.60
2022-11-04T23:25:34.494Z,0.50
2022-11-04T23:28:45.770Z,0.70
2022-11-04T23:31:37.006Z,0.50
2022-11-04T23:34:46.096Z,0.60
2022-11-04T23:37:37.485Z,0.33
2022-11-04T23:40:31.092Z,0.50
2022-11-04T23:43:22.564Z,0.60
2022-11-04T23:46:33.081Z,0.60
2022-11-04T23:49:47.419Z,0.50
2022-11-04T23:52:56.349Z,0.47
2022-11-04T23:56:21.506Z,0.70
